Time;durP1;ratioP1;P1;durP2;ratioP2;P2;SDS_P1;SDS_P2;PMS_P1;PMS_P2;Temp;Humidity;BMP_temperature;BMP_pressure;BME280_temperature;BME280_humidity;BME280_pressure;Samples;Min_cycle;Max_cycle;Signal;HPM_P1;HPM_P2
2023/05/20 05:16:24;;;;;;;1999.90;999.90;;;;;;;;;;6133731;23;20479;-74
2023/05/20 05:18:50;;;;;;;1999.90;999.90;;;;;;;;;;6152627;23;20461;-77
2023/05/20 05:21:16;;;;;;;1999.90;999.90;;;;;;;;;;6153669;23;20009;-74
2023/05/20 05:23:42;;;;;;;1999.90;999.90;;;;;;;;;;6153525;23;20002;-73
2023/05/20 05:26:08;;;;;;;1999.90;999.90;;;;;;;;;;6152974;23;20113;-76
2023/05/20 05:28:34;;;;;;;1999.90;999.90;;;;;;;;;;6153063;23;20016;-76
2023/05/20 05:31:01;;;;;;;1999.90;999.90;;;;;;;;;;6153221;23;20008;-76
2023/05/20 05:33:27;;;;;;;1999.90;999.90;;;;;;;;;;6153503;23;20101;-69
2023/05/20 05:35:53;;;;;;;1999.90;999.90;;;;;;;;;;6153786;23;20115;-74
2023/05/20 05:38:19;;;;;;;1999.90;999.90;;;;;;;;;;6153436;23;20101;-79
2023/05/20 05:40:45;;;;;;;1999.90;999.90;;;;;;;;;;6154068;23;20283;-77
2023/05/20 05:43:11;;;;;;;1999.90;999.90;;;;;;;;;;6153290;23;20021;-72
2023/05/20 05:45:38;;;;;;;1999.90;999.90;;;;;;;;;;6153352;23;20033;-76
2023/05/20 05:48:04;;;;;;;1999.90;999.90;;;;;;;;;;6153907;23;20457;-76
2023/05/20 05:50:30;;;;;;;1999.90;999.90;;;;;;;;;;6154045;23;20016;-76
2023/05/20 05:52:56;;;;;;;1999.90;999.90;;;;;;;;;;6154023;23;20009;-78
2023/05/20 05:55:22;;;;;;;1999.90;999.90;;;;;;;;;;6153784;23;20453;-75
2023/05/20 05:57:48;;;;;;;1999.90;999.90;;;;;;;;;;6153964;23;20444;-74
2023/05/20 06:00:15;;;;;;;1999.90;999.90;;;;;;;;;;6152990;23;20362;-71
2023/05/20 06:02:41;;;;;;;1999.90;999.90;;;;;;;;;;6153661;23;20006;-74
2023/05/20 06:05:07;;;;;;;1999.90;999.90;;;;;;;;;;6153742;23;20012;-74
2023/05/20 06:07:33;;;;;;;1999.90;999.90;;;;;;;;;;6153482;23;20001;-75
2023/05/20 06:09:59;;;;;;;1999.90;999.90;;;;;;;;;;6153404;23;20017;-74
2023/05/20 06:12:25;;;;;;;1999.90;999.90;;;;;;;;;;6153263;23;20373;-72
2023/05/20 06:14:51;;;;;;;1999.90;999.90;;;;;;;;;;6153208;23;20006;-69
2023/05/20 06:17:17;;;;;;;1999.90;999.90;;;;;;;;;;6150664;23;20048;-67
2023/05/20 06:19:43;;;;;;;1999.90;999.90;;;;;;;;;;6153548;23;20013;-66
2023/05/20 06:22:09;;;;;;;1999.90;999.90;;;;;;;;;;6153322;23;20009;-66
2023/05/20 06:24:35;;;;;;;1999.90;999.90;;;;;;;;;;6152171;23;20012;-64
2023/05/20 06:27:02;;;;;;;1999.90;999.90;;;;;;;;;;6152033;23;20010;-66
2023/05/20 06:29:28;;;;;;;1999.90;999.90;;;;;;;;;;6152797;23;20076;-63
2023/05/20 06:31:54;;;;;;;1999.90;999.90;;;;;;;;;;6153174;23;20013;-66
2023/05/20 06:34:20;;;;;;;1999.90;999.90;;;;;;;;;;6153625;23;20513;-70
2023/05/20 06:36:46;;;;;;;1999.90;999.90;;;;;;;;;;6153408;23;20063;-70
2023/05/20 06:39:12;;;;;;;1999.90;999.90;;;;;;;;;;6153271;23;20033;-67
2023/05/20 06:41:39;;;;;;;1999.90;999.90;;;;;;;;;;6152681;23;20009;-72
2023/05/20 06:44:06;;;;;;;1999.90;999.90;;;;;;;;;;6153568;23;20080;-70
2023/05/20 06:46:32;;;;;;;1999.90;999.90;;;;;;;;;;6150653;23;20013;-71
2023/05/20 06:48:58;;;;;;;1999.90;999.90;;;;;;;;;;6152248;23;20474;-69
2023/05/20 06:51:24;;;;;;;1999.90;999.90;;;;;;;;;;6152204;23;20037;-64
2023/05/20 06:53:50;;;;;;;1999.90;999.90;;;;;;;;;;6152059;23;20063;-68
2023/05/20 06:56:16;;;;;;;1999.90;999.90;;;;;;;;;;6152339;23;20096;-67
2023/05/20 06:58:42;;;;;;;1999.90;999.90;;;;;;;;;;6152047;23;20005;-61
2023/05/20 07:01:08;;;;;;;1999.90;999.90;;;;;;;;;;6152411;23;20016;-67
2023/05/20 07:03:34;;;;;;;1999.90;999.90;;;;;;;;;;6153368;23;20072;-69
2023/05/20 07:06:00;;;;;;;1999.90;999.90;;;;;;;;;;6153024;23;20326;-72
2023/05/20 07:08:26;;;;;;;1999.90;999.90;;;;;;;;;;6152986;23;20006;-71
2023/05/20 07:10:55;;;;;;;1999.90;999.90;;;;;;;;;;6153006;23;20002;-71
2023/05/20 07:13:22;;;;;;;1999.90;999.90;;;;;;;;;;6153246;23;20001;-72
2023/05/20 07:15:49;;;;;;;1999.90;999.90;;;;;;;;;;6152670;23;20330;-69
2023/05/20 07:18:15;;;;;;;1999.90;999.90;;;;;;;;;;6152698;23;20137;-72
2023/05/20 07:20:41;;;;;;;1999.90;999.90;;;;;;;;;;6153398;23;20009;-75
2023/05/20 07:23:07;;;;;;;1999.90;999.90;;;;;;;;;;6152869;23;20005;-70
2023/05/20 07:25:33;;;;;;;1999.90;999.90;;;;;;;;;;6152711;23;20040;-67
2023/05/20 07:27:59;;;;;;;1999.90;999.90;;;;;;;;;;6152830;23;20064;-64
2023/05/20 07:30:26;;;;;;;1999.90;999.90;;;;;;;;;;6152969;23;20496;-67
2023/05/20 07:32:52;;;;;;;1999.90;999.90;;;;;;;;;;6152999;23;20103;-68
2023/05/20 07:35:18;;;;;;;1999.90;999.90;;;;;;;;;;6152933;23;20009;-68
2023/05/20 07:37:44;;;;;;;1999.90;999.90;;;;;;;;;;6152698;23;20008;-69
2023/05/20 07:40:10;;;;;;;1999.90;999.90;;;;;;;;;;6152628;23;20011;-67
2023/05/20 07:42:36;;;;;;;1999.90;999.90;;;;;;;;;;6152716;23;19998;-68
2023/05/20 07:45:02;;;;;;;1999.90;999.90;;;;;;;;;;6153066;23;20688;-68
2023/05/20 07:47:28;;;;;;;1999.90;999.90;;;;;;;;;;6152237;23;20032;-66
2023/05/20 07:49:54;;;;;;;1999.90;999.90;;;;;;;;;;6152944;23;20019;-67
2023/05/20 07:52:21;;;;;;;1999.90;999.90;;;;;;;;;;6153309;23;19997;-66
2023/05/20 07:54:47;;;;;;;1999.90;999.90;;;;;;;;;;6154557;23;20005;-67
2023/05/20 07:57:13;;;;;;;1999.90;999.90;;;;;;;;;;6152608;23;20303;-67
2023/05/20 07:59:40;;;;;;;1999.90;999.90;;;;;;;;;;6154692;23;20085;-67
2023/05/20 08:02:06;;;;;;;1999.90;999.90;;;;;;;;;;6154517;23;20006;-69
2023/05/20 08:04:32;;;;;;;1999.90;999.90;;;;;;;;;;6154374;23;20005;-68
2023/05/20 08:06:58;;;;;;;1999.90;999.90;;;;;;;;;;6154249;23;20012;-69
2023/05/20 08:09:24;;;;;;;1999.90;999.90;;;;;;;;;;6154251;23;20277;-69
2023/05/20 08:11:50;;;;;;;1999.90;999.90;;;;;;;;;;6154447;23;20035;-65
2023/05/20 08:14:16;;;;;;;1999.90;999.90;;;;;;;;;;6154376;23;20005;-66
2023/05/20 08:16:42;;;;;;;1999.90;999.90;;;;;;;;;;6153540;23;20041;-65
2023/05/20 08:19:08;;;;;;;1999.90;999.90;;;;;;;;;;6154146;23;20496;-65
2023/05/20 08:21:34;;;;;;;1999.90;999.90;;;;;;;;;;6154291;23;20079;-65
2023/05/20 08:24:01;;;;;;;1999.90;999.90;;;;;;;;;;6154355;23;20072;-67
2023/05/20 08:26:27;;;;;;;1999.90;999.90;;;;;;;;;;6154316;23;20115;-66
2023/05/20 08:28:53;;;;;;;1999.90;999.90;;;;;;;;;;6153945;23;20048;-64
2023/05/20 08:31:19;;;;;;;1999.90;999.90;;;;;;;;;;6154227;23;20002;-66
2023/05/20 08:33:45;;;;;;;1999.90;999.90;;;;;;;;;;6154240;23;20322;-66
2023/05/20 08:36:11;;;;;;;1999.90;999.90;;;;;;;;;;6153948;23;20002;-66
2023/05/20 08:38:37;;;;;;;1999.90;999.90;;;;;;;;;;6152429;23;20036;-67
2023/05/20 08:41:03;;;;;;;1999.90;999.90;;;;;;;;;;6153939;23;20023;-66
2023/05/20 08:43:31;;;;;;;1999.90;999.90;;;;;;;;;;6153488;23;20415;-69
2023/05/20 08:45:57;;;;;;;1999.90;999.90;;;;;;;;;;6153960;23;20097;-70
2023/05/20 08:48:26;;;;;;;1999.90;999.90;;;;;;;;;;6153348;23;20474;-68
2023/05/20 08:50:53;;;;;;;1999.90;999.90;;;;;;;;;;6153205;23;20009;-71
2023/05/20 08:53:20;;;;;;;1999.90;999.90;;;;;;;;;;6153601;23;20005;-65
2023/05/20 08:55:48;;;;;;;1999.90;999.90;;;;;;;;;;6153764;23;20029;-68
2023/05/20 08:58:16;;;;;;;1999.90;999.90;;;;;;;;;;6153585;23;20012;-68
2023/05/20 09:00:42;;;;;;;1999.90;999.90;;;;;;;;;;6153658;23;20009;-68
2023/05/20 09:03:08;;;;;;;1999.90;999.90;;;;;;;;;;6152975;23;20020;-66
2023/05/20 09:05:34;;;;;;;1999.90;999.90;;;;;;;;;;6153372;23;20017;-66
2023/05/20 09:08:06;;;;;;;1999.90;999.90;;;;;;;;;;6153379;23;20006;-67
2023/05/20 09:10:33;;;;;;;1999.90;999.90;;;;;;;;;;6153630;23;20013;-66
2023/05/20 09:13:01;;;;;;;1999.90;999.90;;;;;;;;;;6153067;23;20009;-67
2023/05/20 09:15:27;;;;;;;1999.90;999.90;;;;;;;;;;6153754;23;20002;-66
2023/05/20 09:17:53;;;;;;;1999.90;999.90;;;;;;;;;;6152605;23;20049;-66
2023/05/20 09:20:21;;;;;;;1999.90;999.90;;;;;;;;;;6153816;23;20005;-66
2023/05/20 09:22:50;;;;;;;1999.90;999.90;;;;;;;;;;6153258;23;20072;-67
2023/05/20 09:25:18;;;;;;;1999.90;999.90;;;;;;;;;;6153661;23;20366;-67
2023/05/20 09:27:44;;;;;;;1999.90;999.90;;;;;;;;;;6149996;23;20335;-66
2023/05/20 09:30:11;;;;;;;1999.90;999.90;;;;;;;;;;6152540;23;20013;-67
2023/05/20 09:32:37;;;;;;;1999.90;999.90;;;;;;;;;;6152145;23;20434;-66
2023/05/20 09:35:05;;;;;;;1999.90;999.90;;;;;;;;;;6152895;23;20025;-66
2023/05/20 09:37:33;;;;;;;1999.90;999.90;;;;;;;;;;6152621;23;20008;-66
2023/05/20 09:40:05;;;;;;;1999.90;999.90;;;;;;;;;;6152719;23;20005;-67
2023/05/20 09:42:42;;;;;;;1999.90;999.90;;;;;;;;;;6152625;23;20040;-67
2023/05/20 09:45:08;;;;;;;1999.90;999.90;;;;;;;;;;6152366;23;20012;-66
2023/05/20 09:47:36;;;;;;;1999.90;999.90;;;;;;;;;;6151665;23;20025;-67
2023/05/20 09:50:02;;;;;;;1999.90;999.90;;;;;;;;;;6152469;23;20010;-67
2023/05/20 09:52:29;;;;;;;1999.90;999.90;;;;;;;;;;6152329;23;20016;-64
2023/05/20 09:54:56;;;;;;;1999.90;999.90;;;;;;;;;;6152184;23;20008;-68
2023/05/20 09:57:22;;;;;;;1999.90;999.90;;;;;;;;;;6152847;23;20466;-66
2023/05/20 09:59:49;;;;;;;1999.90;999.90;;;;;;;;;;6152959;23;20345;-67
2023/05/20 10:02:15;;;;;;;1999.90;999.90;;;;;;;;;;6152969;23;20080;-66
2023/05/20 10:04:45;;;;;;;1999.90;999.90;;;;;;;;;;6152643;23;20008;-66
2023/05/20 10:07:17;;;;;;;1999.90;999.90;;;;;;;;;;6126803;23;20002;-69
2023/05/20 10:09:49;;;;;;;1999.90;999.90;;;;;;;;;;6152865;23;20014;-66
2023/05/20 10:12:15;;;;;;;1999.90;999.90;;;;;;;;;;6152724;23;20068;-65
2023/05/20 10:15:00;;;;;;;1999.90;999.90;;;;;;;;;;6152991;23;20002;-65
2023/05/20 10:17:35;;;;;;;1999.90;999.90;;;;;;;;;;6151619;23;20045;-72
2023/05/20 10:20:03;;;;;;;1999.90;999.90;;;;;;;;;;6126865;23;20112;-65
2023/05/20 10:22:30;;;;;;;1999.90;999.90;;;;;;;;;;6152979;23;20002;-66
2023/05/20 10:25:00;;;;;;;1999.90;999.90;;;;;;;;;;6152752;23;20084;-68
2023/05/20 10:27:26;;;;;;;1999.90;999.90;;;;;;;;;;6152608;23;20077;-68
2023/05/20 10:29:52;;;;;;;1999.90;999.90;;;;;;;;;;6152891;23;20017;-66
2023/05/20 10:32:25;;;;;;;1999.90;999.90;;;;;;;;;;6152655;23;20045;-73
2023/05/20 10:34:51;;;;;;;;;;;;;;;;;;6153271;23;20005;-72
2023/05/20 10:37:24;;;;;;;1999.90;999.90;;;;;;;;;;6152710;23;20464;-68
2023/05/20 10:39:50;;;;;;;1999.90;999.90;;;;;;;;;;6152980;23;20457;-68
2023/05/20 10:42:26;;;;;;;1999.90;999.90;;;;;;;;;;6125865;23;20006;-67
2023/05/20 10:44:52;;;;;;;1999.90;999.90;;;;;;;;;;6152834;23;20095;-69
2023/05/20 10:47:18;;;;;;;1999.90;999.90;;;;;;;;;;6152654;23;20020;-74
2023/05/20 10:49:45;;;;;;;1999.90;999.90;;;;;;;;;;6126146;23;20010;-71
2023/05/20 10:52:12;;;;;;;1999.90;999.90;;;;;;;;;;6152924;23;20002;-72
2023/05/20 10:54:54;;;;;;;1999.90;999.90;;;;;;;;;;6152772;23;20048;-67
2023/05/20 10:57:20;;;;;;;1999.90;999.90;;;;;;;;;;6152667;23;20311;-71
2023/05/20 10:59:46;;;;;;;1999.90;999.90;;;;;;;;;;6152813;23;20002;-71
2023/05/20 11:02:15;;;;;;;1999.90;999.90;;;;;;;;;;6152380;23;20029;-72
2023/05/20 11:04:43;;;;;;;1999.90;999.90;;;;;;;;;;6152627;23;20069;-72
2023/05/20 11:07:10;;;;;;;1999.90;999.90;;;;;;;;;;6126847;23;20363;-74
2023/05/20 11:09:36;;;;;;;1999.90;999.90;;;;;;;;;;6152097;23;20021;-69
2023/05/20 11:12:02;;;;;;;1999.90;999.90;;;;;;;;;;6152063;23;20056;-72
2023/05/20 11:14:29;;;;;;;1999.90;999.90;;;;;;;;;;6152999;23;20414;-69
2023/05/20 11:16:58;;;;;;;1999.90;999.90;;;;;;;;;;6152387;23;20438;-67
2023/05/20 11:19:25;;;;;;;1999.90;999.90;;;;;;;;;;6151899;23;20072;-68
2023/05/20 11:21:51;;;;;;;1999.90;999.90;;;;;;;;;;6152777;23;20001;-73
2023/05/20 11:24:27;;;;;;;1999.90;999.90;;;;;;;;;;6152783;23;20085;-74
2023/05/20 11:26:56;;;;;;;1999.90;999.90;;;;;;;;;;6125603;23;20005;-66
2023/05/20 11:29:23;;;;;;;1999.90;999.90;;;;;;;;;;6154638;23;20017;-74
2023/05/20 11:31:52;;;;;;;1999.90;999.90;;;;;;;;;;6155061;23;20002;-73
2023/05/20 11:34:22;;;;;;;1999.90;999.90;;;;;;;;;;6154324;23;20009;-72
2023/05/20 11:36:51;;;;;;;1999.90;999.90;;;;;;;;;;6154309;23;20104;-72
2023/05/20 11:39:17;;;;;;;1999.90;999.90;;;;;;;;;;6154648;23;20077;-72
2023/05/20 11:41:44;;;;;;;1999.90;999.90;;;;;;;;;;6154450;23;20045;-71
2023/05/20 11:44:13;;;;;;;1999.90;999.90;;;;;;;;;;6154211;23;20004;-69
2023/05/20 11:46:43;;;;;;;1999.90;999.90;;;;;;;;;;6154406;23;20061;-74
2023/05/20 11:49:09;;;;;;;1999.90;999.90;;;;;;;;;;6153763;23;20389;-71
2023/05/20 11:51:37;;;;;;;1999.90;999.90;;;;;;;;;;6153957;23;20107;-65
2023/05/20 11:54:04;;;;;;;1999.90;999.90;;;;;;;;;;6154297;23;20318;-70
2023/05/20 11:56:33;;;;;;;1999.90;999.90;;;;;;;;;;6154306;23;20095;-67
2023/05/20 11:59:00;;;;;;;1999.90;999.90;;;;;;;;;;6154193;23;20088;-70
2023/05/20 12:01:26;;;;;;;1999.90;999.90;;;;;;;;;;6153974;23;20005;-69
2023/05/20 12:03:53;;;;;;;1999.90;999.90;;;;;;;;;;6154170;23;20066;-69
2023/05/20 12:06:19;;;;;;;1999.90;999.90;;;;;;;;;;6154371;23;20122;-69
2023/05/20 12:08:46;;;;;;;1999.90;999.90;;;;;;;;;;6153714;23;20016;-69
2023/05/20 12:11:12;;;;;;;1999.90;999.90;;;;;;;;;;6153395;23;20001;-68
2023/05/20 12:13:38;;;;;;;1999.90;999.90;;;;;;;;;;6154203;23;20006;-70
2023/05/20 12:16:05;;;;;;;1999.90;999.90;;;;;;;;;;6153984;23;20009;-69
2023/05/20 12:18:31;;;;;;;1999.90;999.90;;;;;;;;;;6153346;23;20028;-68
2023/05/20 12:20:57;;;;;;;1999.90;999.90;;;;;;;;;;6153782;23;20013;-69
2023/05/20 12:23:24;;;;;;;1999.90;999.90;;;;;;;;;;6153745;23;20729;-72
2023/05/20 12:25:50;;;;;;;1999.90;999.90;;;;;;;;;;6154108;23;20072;-68
2023/05/20 12:28:16;;;;;;;1999.90;999.90;;;;;;;;;;6153960;23;20061;-72
2023/05/20 12:30:42;;;;;;;1999.90;999.90;;;;;;;;;;6127060;23;20338;-69
2023/05/20 12:33:08;;;;;;;1999.90;999.90;;;;;;;;;;6154148;23;20001;-70
2023/05/20 12:35:39;;;;;;;1999.90;999.90;;;;;;;;;;6154024;23;20021;-73
2023/05/20 12:38:05;;;;;;;1999.90;999.90;;;;;;;;;;6153523;23;20154;-71
2023/05/20 12:40:32;;;;;;;1999.90;999.90;;;;;;;;;;6153782;23;20001;-69
2023/05/20 12:42:58;;;;;;;1999.90;999.90;;;;;;;;;;6153918;23;20002;-75
2023/05/20 12:45:24;;;;;;;1999.90;999.90;;;;;;;;;;6153921;23;20013;-72
2023/05/20 12:47:50;;;;;;;1999.90;999.90;;;;;;;;;;6153130;23;20013;-70
2023/05/20 12:50:16;;;;;;;1999.90;999.90;;;;;;;;;;6153733;23;20056;-69
2023/05/20 12:52:42;;;;;;;1999.90;999.90;;;;;;;;;;6127152;23;20012;-72
2023/05/20 12:55:12;;;;;;;1999.90;999.90;;;;;;;;;;6154121;23;20072;-63
2023/05/20 12:57:43;;;;;;;1999.90;999.90;;;;;;;;;;6127079;23;20006;-66
2023/05/20 13:00:09;;;;;;;1999.90;999.90;;;;;;;;;;6153819;23;20005;-67
2023/05/20 13:02:35;;;;;;;1999.90;999.90;;;;;;;;;;6153861;23;20040;-67
2023/05/20 13:05:01;;;;;;;1999.90;999.90;;;;;;;;;;6153692;23;20076;-65
2023/05/20 13:07:27;;;;;;;1999.90;999.90;;;;;;;;;;6153498;23;20002;-69
2023/05/20 13:09:54;;;;;;;1999.90;999.90;;;;;;;;;;6153614;23;20338;-73
2023/05/20 13:12:20;;;;;;;1999.90;999.90;;;;;;;;;;6153388;23;20351;-69
2023/05/20 13:14:46;;;;;;;1999.90;999.90;;;;;;;;;;6153702;23;20001;-67
2023/05/20 13:17:12;;;;;;;1999.90;999.90;;;;;;;;;;6121381;23;20347;-67
2023/05/20 13:19:38;;;;;;;1999.90;999.90;;;;;;;;;;6124214;23;20002;-70
2023/05/20 13:22:07;;;;;;;1999.90;999.90;;;;;;;;;;6123662;23;20006;-69
2023/05/20 13:24:34;;;;;;;1999.90;999.90;;;;;;;;;;6124281;23;20006;-70
2023/05/20 13:27:00;;;;;;;1999.90;999.90;;;;;;;;;;6123943;23;20021;-70
2023/05/20 13:29:27;;;;;;;1999.90;999.90;;;;;;;;;;6123776;23;20378;-68
2023/05/20 13:31:53;;;;;;;1999.90;999.90;;;;;;;;;;6123983;23;20363;-64
2023/05/20 13:34:19;;;;;;;1999.90;999.90;;;;;;;;;;6123850;23;20014;-67
2023/05/20 13:36:46;;;;;;;1999.90;999.90;;;;;;;;;;6124053;23;20034;-64
2023/05/20 13:39:13;;;;;;;1999.90;999.90;;;;;;;;;;6123781;23;20006;-64
2023/05/20 13:41:39;;;;;;;1999.90;999.90;;;;;;;;;;6124026;23;20008;-64
2023/05/20 13:44:05;;;;;;;1999.90;999.90;;;;;;;;;;6123368;23;20482;-67
2023/05/20 13:46:31;;;;;;;1999.90;999.90;;;;;;;;;;6123467;23;20021;-64
2023/05/20 13:48:57;;;;;;;1999.90;999.90;;;;;;;;;;6123423;23;20172;-65
2023/05/20 13:51:23;;;;;;;1999.90;999.90;;;;;;;;;;6123565;23;20002;-69
2023/05/20 13:53:50;;;;;;;1999.90;999.90;;;;;;;;;;6123572;23;20061;-64
2023/05/20 13:56:16;;;;;;;1999.90;999.90;;;;;;;;;;6123741;23;19998;-67
2023/05/20 13:58:42;;;;;;;1999.90;999.90;;;;;;;;;;6123163;23;20091;-65
2023/05/20 14:01:08;;;;;;;1999.90;999.90;;;;;;;;;;6123057;23;20044;-69
2023/05/20 14:03:36;;;;;;;1999.90;999.90;;;;;;;;;;6121719;23;20005;-68
2023/05/20 14:06:02;;;;;;;1999.90;999.90;;;;;;;;;;6123420;23;20331;-65
2023/05/20 14:08:28;;;;;;;1999.90;999.90;;;;;;;;;;6123312;23;20438;-64
2023/05/20 14:10:54;;;;;;;1999.90;999.90;;;;;;;;;;6097404;23;20671;-65
2023/05/20 14:13:21;;;;;;;1999.90;999.90;;;;;;;;;;6123377;23;20046;-67
2023/05/20 14:15:49;;;;;;;1999.90;999.90;;;;;;;;;;6122957;23;20029;-69
2023/05/20 14:18:15;;;;;;;1999.90;999.90;;;;;;;;;;6149046;23;20387;-69
2023/05/20 14:20:41;;;;;;;1999.90;999.90;;;;;;;;;;6152454;23;20422;-66
2023/05/20 14:23:07;;;;;;;1999.90;999.90;;;;;;;;;;6152630;23;20007;-68
2023/05/20 14:25:33;;;;;;;1999.90;999.90;;;;;;;;;;6152994;23;20009;-69
2023/05/20 14:28:00;;;;;;;1999.90;999.90;;;;;;;;;;6152580;23;20005;-66
2023/05/20 14:30:26;;;;;;;1999.90;999.90;;;;;;;;;;6152739;23;20498;-67
2023/05/20 14:32:52;;;;;;;1999.90;999.90;;;;;;;;;;6152949;23;20001;-68
2023/05/20 14:35:18;;;;;;;1999.90;999.90;;;;;;;;;;6152851;23;20009;-68
2023/05/20 14:37:44;;;;;;;1999.90;999.90;;;;;;;;;;6152773;23;20012;-68
2023/05/20 14:40:10;;;;;;;1999.90;999.90;;;;;;;;;;6152750;23;20005;-68
2023/05/20 14:42:37;;;;;;;1999.90;999.90;;;;;;;;;;6152400;23;20005;-68
2023/05/20 14:45:03;;;;;;;1999.90;999.90;;;;;;;;;;6152700;23;19998;-69
2023/05/20 14:47:29;;;;;;;1999.90;999.90;;;;;;;;;;6152054;23;20020;-66
2023/05/20 14:49:55;;;;;;;1999.90;999.90;;;;;;;;;;6152126;23;20021;-67
2023/05/20 14:52:22;;;;;;;1999.90;999.90;;;;;;;;;;6152047;23;20008;-65
2023/05/20 14:54:48;;;;;;;1999.90;999.90;;;;;;;;;;6152378;23;20008;-69
2023/05/20 14:57:17;;;;;;;1999.90;999.90;;;;;;;;;;6152346;23;20080;-68
2023/05/20 14:59:44;;;;;;;1999.90;999.90;;;;;;;;;;6152580;23;20009;-69
2023/05/20 15:02:10;;;;;;;1999.90;999.90;;;;;;;;;;6152512;23;20052;-68
2023/05/20 15:04:36;;;;;;;1999.90;999.90;;;;;;;;;;6152668;23;20036;-70
2023/05/20 15:07:02;;;;;;;1999.90;999.90;;;;;;;;;;6152120;23;20002;-69
2023/05/20 15:09:28;;;;;;;1999.90;999.90;;;;;;;;;;6152313;23;20013;-66
2023/05/20 15:11:54;;;;;;;1999.90;999.90;;;;;;;;;;6152608;23;20326;-69
2023/05/20 15:14:20;;;;;;;1999.90;999.90;;;;;;;;;;6152219;23;20438;-69
2023/05/20 15:16:46;;;;;;;1999.90;999.90;;;;;;;;;;6151539;23;20013;-68
2023/05/20 15:19:12;;;;;;;1999.90;999.90;;;;;;;;;;6152444;23;20073;-69
2023/05/20 15:21:39;;;;;;;1999.90;999.90;;;;;;;;;;6152406;23;20021;-68
2023/05/20 15:24:05;;;;;;;1999.90;999.90;;;;;;;;;;6152693;23;20055;-73
2023/05/20 15:26:31;;;;;;;1999.90;999.90;;;;;;;;;;6152334;23;20005;-71
2023/05/20 15:28:57;;;;;;;1999.90;999.90;;;;;;;;;;6125689;23;20454;-66
2023/05/20 15:31:24;;;;;;;1999.90;999.90;;;;;;;;;;6151712;23;20081;-66
2023/05/20 15:33:50;;;;;;;1999.90;999.90;;;;;;;;;;6152329;23;20437;-70
2023/05/20 15:36:16;;;;;;;1999.90;999.90;;;;;;;;;;6152361;23;20043;-65
2023/05/20 15:38:43;;;;;;;1999.90;999.90;;;;;;;;;;6152105;23;20012;-68
2023/05/20 15:41:12;;;;;;;1999.90;999.90;;;;;;;;;;6152858;23;20010;-69
2023/05/20 15:43:38;;;;;;;1999.90;999.90;;;;;;;;;;6152392;23;20342;-68
2023/05/20 15:46:04;;;;;;;1999.90;999.90;;;;;;;;;;6152267;23;20114;-66
2023/05/20 15:48:30;;;;;;;1999.90;999.90;;;;;;;;;;6151943;23;20013;-68
2023/05/20 15:50:56;;;;;;;1999.90;999.90;;;;;;;;;;6125567;23;20041;-68
2023/05/20 15:53:22;;;;;;;1999.90;999.90;;;;;;;;;;6152038;23;20002;-70
2023/05/20 15:55:50;;;;;;;1999.90;999.90;;;;;;;;;;6151867;23;20001;-68
2023/05/20 15:58:16;;;;;;;1999.90;999.90;;;;;;;;;;6151615;23;20025;-70
2023/05/20 16:00:42;;;;;;;1999.90;999.90;;;;;;;;;;6151725;23;20006;-69
2023/05/20 16:03:09;;;;;;;1999.90;999.90;;;;;;;;;;6151686;23;20060;-70
2023/05/20 16:05:35;;;;;;;1999.90;999.90;;;;;;;;;;6151858;23;20005;-67
2023/05/20 16:08:01;;;;;;;1999.90;999.90;;;;;;;;;;6152216;23;20005;-69
2023/05/20 16:10:31;;;;;;;1999.90;999.90;;;;;;;;;;6152527;23;20005;-70
2023/05/20 16:12:58;;;;;;;1999.90;999.90;;;;;;;;;;6152102;23;20004;-70
2023/05/20 16:15:24;;;;;;;1999.90;999.90;;;;;;;;;;6153190;23;20117;-69
2023/05/20 16:17:50;;;;;;;1999.90;999.90;;;;;;;;;;6153353;23;20021;-69
2023/05/20 16:20:16;;;;;;;1999.90;999.90;;;;;;;;;;6153835;23;20330;-70
2023/05/20 16:22:42;;;;;;;1999.90;999.90;;;;;;;;;;6153525;23;20320;-71
2023/05/20 16:25:09;;;;;;;1999.90;999.90;;;;;;;;;;6153478;23;20016;-69
2023/05/20 16:27:36;;;;;;;1999.90;999.90;;;;;;;;;;6154576;23;20077;-68
2023/05/20 16:30:02;;;;;;;1999.90;999.90;;;;;;;;;;6153770;23;20017;-66
2023/05/20 16:32:29;;;;;;;1999.90;999.90;;;;;;;;;;6153618;23;19997;-67
2023/05/20 16:34:56;;;;;;;1999.90;999.90;;;;;;;;;;6154313;23;20029;-67
2023/05/20 16:37:22;;;;;;;1999.90;999.90;;;;;;;;;;6154348;23;20008;-66
2023/05/20 16:39:48;;;;;;;1999.90;999.90;;;;;;;;;;6154645;23;20009;-64
2023/05/20 16:42:14;;;;;;;1999.90;999.90;;;;;;;;;;6154205;23;20315;-66
2023/05/20 16:44:40;;;;;;;1999.90;999.90;;;;;;;;;;6152853;23;20080;-65
2023/05/20 16:47:09;;;;;;;1999.90;999.90;;;;;;;;;;6153069;23;20403;-66
2023/05/20 16:49:35;;;;;;;1999.90;999.90;;;;;;;;;;6154595;23;20013;-65
2023/05/20 16:52:01;;;;;;;1999.90;999.90;;;;;;;;;;6153702;23;20005;-66
2023/05/20 16:54:27;;;;;;;1999.90;999.90;;;;;;;;;;6153213;23;20016;-66
2023/05/20 16:56:53;;;;;;;1999.90;999.90;;;;;;;;;;6153031;23;20028;-65
2023/05/20 16:59:20;;;;;;;1999.90;999.90;;;;;;;;;;6153009;23;20338;-65
2023/05/20 17:01:46;;;;;;;1999.90;999.90;;;;;;;;;;6153160;23;20009;-66
2023/05/20 17:04:12;;;;;;;1999.90;999.90;;;;;;;;;;6153090;23;20009;-65
2023/05/20 17:06:38;;;;;;;1999.90;999.90;;;;;;;;;;6153190;23;20002;-65
2023/05/20 17:09:05;;;;;;;1999.90;999.90;;;;;;;;;;6152970;23;20018;-65
2023/05/20 17:11:31;;;;;;;1999.90;999.90;;;;;;;;;;6153043;23;20005;-65
2023/05/20 17:13:57;;;;;;;1999.90;999.90;;;;;;;;;;6152921;23;20004;-63
2023/05/20 17:16:23;;;;;;;1999.90;999.90;;;;;;;;;;6152704;23;20014;-64
2023/05/20 17:18:50;;;;;;;1999.90;999.90;;;;;;;;;;6153400;23;20008;-65
2023/05/20 17:21:19;;;;;;;1999.90;999.90;;;;;;;;;;6153369;23;20006;-66
2023/05/20 17:23:45;;;;;;;1999.90;999.90;;;;;;;;;;6153521;23;20009;-66
2023/05/20 17:26:11;;;;;;;1999.90;999.90;;;;;;;;;;6153141;23;20009;-66
2023/05/20 17:28:37;;;;;;;1999.90;999.90;;;;;;;;;;6153313;23;20056;-65
2023/05/20 17:31:03;;;;;;;1999.90;999.90;;;;;;;;;;6153145;23;20001;-64
2023/05/20 17:33:30;;;;;;;1999.90;999.90;;;;;;;;;;6153447;23;20005;-66
2023/05/20 17:35:56;;;;;;;1999.90;999.90;;;;;;;;;;6153519;23;20128;-66
2023/05/20 17:38:24;;;;;;;1999.90;999.90;;;;;;;;;;6153498;23;20033;-65
2023/05/20 17:40:51;;;;;;;1999.90;999.90;;;;;;;;;;6152212;23;20136;-66
2023/05/20 17:43:18;;;;;;;1999.90;999.90;;;;;;;;;;6153505;23;20498;-65
2023/05/20 17:45:44;;;;;;;1999.90;999.90;;;;;;;;;;6152678;23;20002;-66
2023/05/20 17:48:10;;;;;;;1999.90;999.90;;;;;;;;;;6152874;23;20005;-65
2023/05/20 17:50:36;;;;;;;1999.90;999.90;;;;;;;;;;6153231;23;20037;-65
2023/05/20 17:53:02;;;;;;;1999.90;999.90;;;;;;;;;;6152954;23;20020;-66
2023/05/20 17:55:28;;;;;;;1999.90;999.90;;;;;;;;;;6153076;23;20028;-65
2023/05/20 17:57:56;;;;;;;1999.90;999.90;;;;;;;;;;6153490;23;20008;-65
2023/05/20 18:00:23;;;;;;;1999.90;999.90;;;;;;;;;;6153047;23;20081;-66
2023/05/20 18:02:49;;;;;;;1999.90;999.90;;;;;;;;;;6153385;23;20013;-66
2023/05/20 18:05:15;;;;;;;1999.90;999.90;;;;;;;;;;6152650;23;20006;-65
2023/05/20 18:07:42;;;;;;;1999.90;999.90;;;;;;;;;;6152936;23;20077;-65
2023/05/20 18:10:08;;;;;;;1999.90;999.90;;;;;;;;;;6153267;23;20006;-64
2023/05/20 18:12:34;;;;;;;1999.90;999.90;;;;;;;;;;6152751;23;20004;-64
2023/05/20 18:15:00;;;;;;;1999.90;999.90;;;;;;;;;;6153021;23;20422;-66
2023/05/20 18:17:26;;;;;;;1999.90;999.90;;;;;;;;;;6152863;23;20018;-65
2023/05/20 18:19:53;;;;;;;1999.90;999.90;;;;;;;;;;6152931;23;20005;-65
2023/05/20 18:22:19;;;;;;;1999.90;999.90;;;;;;;;;;6152651;23;20005;-65
2023/05/20 18:24:45;;;;;;;1999.90;999.90;;;;;;;;;;6152957;23;20012;-64
2023/05/20 18:27:11;;;;;;;1999.90;999.90;;;;;;;;;;6152698;23;20061;-65
2023/05/20 18:29:37;;;;;;;1999.90;999.90;;;;;;;;;;6153048;23;20323;-65
2023/05/20 18:32:03;;;;;;;1999.90;999.90;;;;;;;;;;6152798;23;20048;-66
2023/05/20 18:34:31;;;;;;;1999.90;999.90;;;;;;;;;;6153031;23;20033;-66
2023/05/20 18:36:58;;;;;;;1999.90;999.90;;;;;;;;;;6125968;23;20006;-65
2023/05/20 18:39:24;;;;;;;1999.90;999.90;;;;;;;;;;6152720;23;20013;-66
2023/05/20 18:41:50;;;;;;;1999.90;999.90;;;;;;;;;;6152933;23;20009;-64
2023/05/20 18:44:16;;;;;;;1999.90;999.90;;;;;;;;;;6152534;23;20007;-64
2023/05/20 18:46:43;;;;;;;1999.90;999.90;;;;;;;;;;6153033;23;20014;-65
2023/05/20 18:49:09;;;;;;;1999.90;999.90;;;;;;;;;;6152955;23;20010;-65
2023/05/20 18:51:35;;;;;;;1999.90;999.90;;;;;;;;;;6152644;23;20021;-64
2023/05/20 18:54:02;;;;;;;1999.90;999.90;;;;;;;;;;6152671;23;20081;-66